Flight Track Log - Related Links

Times and Time Zones

All times are in EDT time to prevent confusion due to time zone crossing. See the UAL258 flight status page for this flight to view local times or setup timezone preferences in your user account.

Time Position Orientation Groundspeed Altitude Reporting Facility
EDT Latitude Longitude Course Direction KTS MPH feet Rate Location/Type
Mon 02:19:45 PM 36.0747 -115.1714 274° West 163 188 3,200  Level Los Angeles Center
Mon 02:20:22 PM 36.0767 -115.2106 274° West 181 208 4,000 1,317 Climbing Los Angeles Center
Mon 02:21:07 PM 36.0625 -115.2589 250° West 225 259 5,000 1,701 Climbing Los Angeles Center
Mon 02:21:29 PM 36.0339 -115.2725 201° Southwest 239 275 5,900 1,645 Climbing Los Angeles Center
Mon 02:22:09 PM 35.9956 -115.2886 199° South 247 284 6,700 1,180 Climbing Los Angeles Center
Mon 02:22:30 PM 35.9656 -115.3056 205° Southwest 273 314 7,100 1,935 Climbing Los Angeles Center
Mon 02:23:11 PM 35.9325 -115.3481 226° Southwest 271 312 8,700 2,459 Climbing Los Angeles Center
Mon 02:23:31 PM 35.9072 -115.3750 221° Southwest 286 329 9,600 2,903 Climbing Los Angeles Center
Mon 02:24:13 PM 35.8856 -115.4217 240° Southwest 280 322 11,700 2,538 Climbing Los Angeles Center
Mon 02:25:15 PM 35.8881 -115.5181 272° West 281 323 14,000 1,776 Climbing Los Angeles Center
Mon 02:26:18 PM 35.8886 -115.6411 270° West 314 361 15,400 1,248 Climbing Los Angeles Center
Mon 02:27:20 PM 35.8911 -115.7758 271° West 367 422 16,600 1,113 Climbing Los Angeles Center
Mon 02:28:22 PM 35.8953 -115.9167 272° West 411 473 17,700 1,210 Climbing Los Angeles Center
Mon 02:29:24 PM 35.9592 -116.0458 301° West 436 502 19,100 1,113 Climbing Los Angeles Center
Mon 02:30:26 PM 36.0492 -116.1481 317° Northwest 441 507 20,000 435 Climbing Los Angeles Center
Mon 02:31:28 PM 36.1300 -116.2383 318° Northwest 449 517 20,000  Level Los Angeles Center
Mon 02:32:30 PM 36.2406 -116.3656 317° Northwest 453 521 20,000  Level Los Angeles Center
Mon 02:33:32 PM 36.3331 -116.4758 316° Northwest 459 528 20,000  Level Los Angeles Center
Mon 02:34:34 PM 36.4256 -116.5825 317° Northwest 458 527 20,000  Level Los Angeles Center
Mon 02:35:36 PM 36.5178 -116.6892 317° Northwest 455 524 20,000  Level Los Angeles Center
Mon 02:36:39 PM 36.6386 -116.8031 323° Northwest 461 531 20,000  Level Los Angeles Center
Mon 02:37:41 PM 36.7478 -116.8867 328° Northwest 460 529 20,000  Level Los Angeles Center
Mon 02:38:43 PM 36.8586 -116.9711 329° Northwest 462 532 20,000  Level Los Angeles Center
Mon 02:39:42 PM 36.9681 -117.0556 328° Northwest 462 532 20,000  Level Oakland Center
Mon 02:40:43 PM 37.0772 -117.1400 328° Northwest 460 529 20,000  Level Oakland Center
Mon 02:41:45 PM 37.1878 -117.2250 329° Northwest 462 532 20,000  Level Oakland Center
Mon 02:42:46 PM 37.2978 -117.3092 329° Northwest 462 532 20,000  Level Oakland Center
Mon 02:43:47 PM 37.4061 -117.3956 328° Northwest 462 532 20,000  Level Oakland Center
Mon 02:44:49 PM 37.4256 -117.5519 279° West 459 528 20,000  Level Oakland Center
Mon 02:45:50 PM 37.4375 -117.7083 276° West 452 520 20,000  Level Oakland Center
Mon 02:46:52 PM 37.4486 -117.8664 275° West 451 519 20,000  Level Oakland Center
Mon 02:47:53 PM 37.4583 -118.0228 275° West 448 516 20,000  Level Oakland Center
Mon 02:48:54 PM 37.4736 -118.2150 276° West 454 522 20,000  Level Oakland Center
Mon 02:49:55 PM 37.4831 -118.3728 274° West 453 521 20,000  Level Oakland Center
Mon 02:50:57 PM 37.4939 -118.5308 275° West 453 521 20,000  Level Oakland Center
Mon 02:51:58 PM 37.5044 -118.6856 275° West 449 517 20,000 -49 Level Oakland Center
Mon 02:52:59 PM 37.5133 -118.8428 274° West 450 518 19,900 -49 Descending Oakland Center
Mon 02:54:01 PM 37.5239 -119.0006 275° West 453 521 19,900  Level Oakland Center
Mon 02:55:02 PM 37.5331 -119.1575 274° West 457 526 19,900  Level Oakland Center
Mon 02:56:03 PM 37.5422 -119.3131 274° West 443 510 19,900 49 Level Oakland Center
Mon 02:57:05 PM 37.5519 -119.4833 274° West 445 512 20,000 49 Climbing Oakland Center
Mon 02:58:06 PM 37.5614 -119.6547 274° West 446 513 20,000  Level Oakland Center
Mon 02:59:07 PM 37.5883 -119.8031 283° West 442 509 20,000  Level Oakland Center
Mon 03:00:09 PM 37.6692 -119.9031 316° Northwest 405 466 20,000  Level Oakland Center
Mon 03:01:10 PM 37.6722 -120.0361 272° West 389 448 20,000  Level Oakland Center
Mon 03:02:12 PM 37.6669 -120.1742 267° West 391 450 20,000  Level Oakland Center
Mon 03:03:13 PM 37.6606 -120.3114 267° West 393 452 20,000  Level Oakland Center
Mon 03:04:14 PM 37.6533 -120.4503 266° West 395 455 20,000  Level Oakland Center
Mon 03:05:16 PM 37.6467 -120.5869 267° West 392 451 20,000  Level Oakland Center
Mon 03:05:52 PM 37.6500 -120.6833 273° West 390 449 20,000  Level Northern Cal TRACON
Mon 03:06:52 PM 37.6333 -120.8333 262° West 394 453 20,000 -579 Level Northern Cal TRACON
Mon 03:07:46 PM 37.6333 -120.9500 270° West 389 448 18,900 -1,800 Descending Northern Cal TRACON
Mon 03:08:52 PM 37.6167 -121.1000 262° West 379 436 16,400 -2,333 Descending Northern Cal TRACON
Mon 03:09:52 PM 37.6000 -121.2167 260° West 370 426 14,000 -1,785 Descending Northern Cal TRACON
Mon 03:10:53 PM 37.5833 -121.3333 260° West 349 402 12,800 -950 Descending Northern Cal TRACON
Mon 03:11:52 PM 37.5667 -121.4500 260° West 300 345 12,100 -908 Descending Northern Cal TRACON
Mon 03:12:52 PM 37.5667 -121.5333 270° West 279 321 11,000 -500 Descending Northern Cal TRACON
Mon 03:13:52 PM 37.5500 -121.6167 256° West 234 269 11,100 -50 Climbing Northern Cal TRACON
Mon 03:14:53 PM 37.5500 -121.7000 270° West 240 276 10,900 -783 Descending Northern Cal TRACON
Mon 03:15:47 PM 37.5000 -121.7333 208° Southwest 227 261 9,600 -1,059 Descending Northern Cal TRACON
Mon 03:16:52 PM 37.4667 -121.7833 230° Southwest 227 261 8,800 -762 Descending Northern Cal TRACON
Mon 03:17:53 PM 37.4833 -121.8500 288° West 213 245 8,000 -500 Descending Northern Cal TRACON
Mon 03:18:52 PM 37.4833 -121.9333 270° West 207 238 7,800 -737 Descending Northern Cal TRACON
Mon 03:19:47 PM 37.5000 -121.9833 293° West 202 232 6,600 -1,190 Descending Northern Cal TRACON
Mon 03:20:53 PM 37.5167 -122.0667 284° West 195 224 5,400 -1,286 Descending Northern Cal TRACON
Mon 03:21:53 PM 37.5500 -122.1167 310° West 186 214 3,900 -1,472 Descending Northern Cal TRACON
Mon 03:22:39 PM 37.5556 -122.1600 279° West 183 211 2,800 -1,111 Descending Oakland Center
Mon 03:23:41 PM 37.5706 -122.2125 290° West 172 198 1,900 -634 Descending Oakland Center
Mon 03:24:42 PM 37.5847 -122.2606 290° West 159 183 1,500 -393 Descending Oakland Center

Login

Don't have an account? Register now (free) for customized features, flight alerts, and more!